Terminal Aerodrome Forecast
Issued by NWS

Home | Current Version | Previous Version | Text Only | Print | Product List | Glossary On
Versions: 1 2 3 4 5 6 7 8 9 10 11 12 13
625
FTUS41 KBGM 241738
TAFITH
TAF
KITH 241738Z 2418/2518 17010G18KT P6SM BKN200
     FM242300 16010KT P6SM OVC070
     FM250300 13008KT P6SM -RA OVC045
     FM250600 11005KT P6SM -RA OVC025
     FM250800 11006KT P6SM -RA OVC015
     FM251300 13008KT 5SM -RA BR OVC008=

USA.gov is the U.S. government's official web portal to all federal, state and local government web resources and services.